Time;durP1;ratioP1;P1;durP2;ratioP2;P2;SDS_P1;SDS_P2;PMS_P1;PMS_P2;Temp;Humidity;BMP_temperature;BMP_pressure;BME280_temperature;BME280_humidity;BME280_pressure;Samples;Min_cycle;Max_cycle;Signal;HPM_P1;HPM_P2
2023/07/07 00:02:35;;;;;;;45.35;23.98;;;;;;;28.71;73.53;100846.69;5057074;28;71317;-42
2023/07/07 00:05:06;;;;;;;43.27;24.43;;;;;;;29.12;73.32;100900.53;5058052;28;65635;-42
2023/07/07 00:07:38;;;;;;;38.67;21.50;;;;;;;29.20;73.36;100904.91;5056148;28;69960;-42
2023/07/07 00:10:10;;;;;;;40.97;22.67;;;;;;;29.22;75.10;100910.91;5064014;28;65255;-42
2023/07/07 00:12:41;;;;;;;32.67;20.88;;;;;;;29.25;75.41;100910.50;5037458;28;69410;-42
2023/07/07 00:15:14;;;;;;;30.60;19.45;;;;;;;29.24;75.85;100895.34;5060454;28;66302;-41
2023/07/07 00:17:47;;;;;;;29.58;18.92;;;;;;;29.33;76.44;100904.88;5037696;28;70530;-41
2023/07/07 00:20:21;;;;;;;26.73;19.95;;;;;;;29.23;76.89;100892.84;5056025;28;65782;-43
2023/07/07 00:22:55;;;;;;;32.95;19.83;;;;;;;29.36;75.87;100904.50;5023613;28;68872;-43
2023/07/07 00:25:29;;;;;;;27.42;19.00;;;;;;;29.49;74.25;100916.31;5060752;28;43141;-43
2023/07/07 00:28:01;;;;;;;31.50;19.42;;;;;;;29.55;75.51;100928.97;5059866;28;69753;-44
2023/07/07 00:30:32;;;;;;;32.87;19.53;;;;;;;29.59;76.37;100928.34;5041588;28;66284;-44
2023/07/07 00:33:04;;;;;;;32.78;19.95;;;;;;;29.55;75.13;100921.69;5056045;28;70376;-44
2023/07/07 00:35:36;;;;;;;26.92;18.88;;;;;;;29.58;76.51;100931.25;5056952;28;66077;-45
2023/07/07 00:38:07;;;;;;;22.30;16.88;;;;;;;29.76;71.14;100928.75;5058583;28;70674;-46
2023/07/07 00:40:39;;;;;;;19.10;16.13;;;;;;;29.69;70.07;100917.13;5058731;28;65360;-46
2023/07/07 00:43:15;;;;;;;19.48;15.98;;;;;;;29.77;69.41;100930.41;5065784;28;69410;-46
2023/07/07 00:45:47;;;;;;;18.83;15.20;;;;;;;29.88;69.50;100950.56;5063527;28;65549;-45
2023/07/07 00:48:28;;;;;;;18.77;15.05;;;;;;;29.39;69.05;100885.16;5043615;28;70764;-46
2023/07/07 00:51:19;;;;;;;16.17;14.30;;;;;;;29.89;68.77;100954.09;5060871;28;66376;-45
2023/07/07 00:53:54;;;;;;;17.93;15.87;;;;;;;29.47;68.62;100889.47;5043304;28;70219;-46
2023/07/07 00:56:36;;;;;;;19.80;15.98;;;;;;;29.92;67.78;100953.69;5062005;28;66102;-47
2023/07/07 00:59:20;;;;;;;19.25;15.93;;;;;;;29.20;68.21;100841.91;5057068;28;70150;-45
2023/07/07 01:01:56;;;;;;;20.92;16.70;;;;;;;29.54;67.85;100881.38;5053691;28;65455;-46
2023/07/07 01:04:30;;;;;;;23.13;16.67;;;;;;;29.65;67.77;100894.28;5056404;28;70156;-45
2023/07/07 01:07:13;;;;;;;17.45;15.48;;;;;;;29.58;67.70;100885.31;5061412;28;66302;-46
2023/07/07 01:09:45;;;;;;;18.38;15.60;;;;;;;30.07;67.33;100959.69;5034520;28;69994;-46
2023/07/07 01:12:16;;;;;;;16.70;15.00;;;;;;;30.08;67.94;100968.63;5045406;28;65622;-46
2023/07/07 01:14:49;;;;;;;16.17;14.63;;;;;;;30.11;67.39;100973.59;5059321;28;69998;-46
2023/07/07 01:17:51;;;;;;;19.27;14.88;;;;;;;30.06;67.38;100983.19;5062149;28;66648;-46
2023/07/07 01:20:32;;;;;;;15.90;14.60;;;;;;;29.39;66.72;100868.94;5013077;28;69949;-45
2023/07/07 01:23:37;;;;;;;14.67;13.43;;;;;;;30.05;66.77;100975.28;5061563;28;65984;-46
2023/07/07 01:26:22;;;;;;;16.17;14.20;;;;;;;29.56;66.62;100890.09;5057734;28;70560;-45
2023/07/07 01:29:25;;;;;;;16.60;15.07;;;;;;;29.74;66.79;100920.03;5060127;28;65809;-46
2023/07/07 01:32:10;;;;;;;18.02;14.48;;;;;;;30.19;66.61;100976.91;5055288;28;70549;-47
2023/07/07 01:34:41;;;;;;;16.35;14.88;;;;;;;30.26;66.67;100976.94;5061617;28;65783;-45
2023/07/07 01:37:13;;;;;;;15.90;14.40;;;;;;;30.27;66.24;100984.00;5041944;28;69776;-46
2023/07/07 01:39:45;;;;;;;15.87;14.27;;;;;;;30.13;66.47;100955.28;5059014;28;65968;-46
2023/07/07 01:42:28;;;;;;;17.92;15.80;;;;;;;29.81;66.40;100895.66;5037861;28;69180;-46
2023/07/07 01:45:17;;;;;;;17.23;15.48;;;;;;;30.37;66.10;100972.69;5057553;28;66378;-47
2023/07/07 01:48:02;;;;;;;15.65;14.20;;;;;;;30.25;66.07;100969.84;5055099;28;70863;-46
2023/07/07 01:50:35;;;;;;;16.55;15.13;;;;;;;30.39;65.74;100973.31;5060872;28;66118;-45
2023/07/07 01:53:16;;;;;;;17.17;15.40;;;;;;;30.39;66.05;100987.66;5059144;28;70648;-47
2023/07/07 01:55:53;;;;;;;16.02;14.75;;;;;;;30.45;65.91;100975.16;5051273;28;66957;-46
2023/07/07 01:58:26;;;;;;;17.35;15.70;;;;;;;29.95;65.73;100891.03;5042151;28;69634;-47
2023/07/07 02:01:00;;;;;;;16.30;14.60;;;;;;;30.47;65.74;100964.94;5043125;28;66976;-46
2023/07/07 02:03:33;;;;;;;16.08;14.80;;;;;;;30.52;65.75;100970.56;5060337;28;70168;-45
2023/07/07 02:06:07;;;;;;;16.35;14.80;;;;;;;30.56;65.61;100970.94;5040979;28;66472;-46
2023/07/07 02:08:44;;;;;;;16.88;15.38;;;;;;;30.41;65.90;100931.47;5057858;28;69559;-46
2023/07/07 02:11:17;;;;;;;16.38;14.93;;;;;;;30.64;65.53;100963.41;5056956;28;66239;-46
2023/07/07 02:13:49;;;;;;;16.80;15.05;;;;;;;30.66;65.75;100952.38;5059723;28;70802;-46
2023/07/07 02:16:21;;;;;;;16.52;14.95;;;;;;;30.67;65.31;100963.00;5060843;28;65336;-46
2023/07/07 02:18:52;;;;;;;15.55;14.15;;;;;;;30.69;65.23;100958.16;5056819;28;70632;-45
2023/07/07 02:21:24;;;;;;;16.35;14.90;;;;;;;30.70;65.47;100954.44;5029223;28;66543;-46
2023/07/07 02:23:56;;;;;;;15.98;14.57;;;;;;;30.77;65.52;100945.44;5067089;28;70286;-45
2023/07/07 02:26:28;;;;;;;16.75;15.15;;;;;;;30.78;65.13;100947.09;5058602;28;66927;-46
2023/07/07 02:28:59;;;;;;;16.35;14.85;;;;;;;30.72;65.17;100929.81;5061479;28;70213;-46
2023/07/07 02:31:30;;;;;;;15.90;14.45;;;;;;;30.85;65.44;100948.75;5049044;28;67435;-46
2023/07/07 02:34:02;;;;;;;15.35;14.05;;;;;;;30.88;65.19;100942.06;5056281;28;70073;-46
2023/07/07 02:36:36;;;;;;;16.13;14.73;;;;;;;30.91;65.03;100939.72;5063288;28;66642;-46
2023/07/07 02:39:07;;;;;;;16.00;14.10;;;;;;;30.81;64.87;100930.41;5064651;28;70553;-46
2023/07/07 02:41:39;;;;;;;15.67;14.23;;;;;;;30.97;64.97;100946.16;5062577;28;66190;-46
2023/07/07 02:44:10;;;;;;;16.80;13.98;;;;;;;31.00;64.76;100937.56;5050694;28;69961;-46
2023/07/07 02:46:45;;;;;;;15.80;14.18;;;;;;;31.04;64.49;100941.53;5060314;28;66415;-46
2023/07/07 02:49:19;;;;;;;14.93;13.65;;;;;;;31.07;64.74;100934.84;5059416;28;70424;-45
2023/07/07 02:51:51;;;;;;;15.23;13.93;;;;;;;31.08;64.80;100931.88;5046254;28;66413;-46
2023/07/07 02:54:22;;;;;;;15.88;13.90;;;;;;;31.08;64.56;100923.75;5063959;28;70798;-46
2023/07/07 02:56:54;;;;;;;14.70;13.43;;;;;;;31.04;64.45;100906.31;5059928;28;66574;-46
2023/07/07 02:59:25;;;;;;;14.95;13.77;;;;;;;31.19;64.54;100921.41;5042169;28;69023;-46
2023/07/07 03:01:57;;;;;;;15.43;13.63;;;;;;;31.15;64.35;100923.72;5058401;28;66098;-46
2023/07/07 03:04:33;;;;;;;14.23;12.90;;;;;;;31.27;64.28;100923.84;5038875;28;70373;-46
2023/07/07 03:07:07;;;;;;;13.90;12.75;;;;;;;31.23;64.00;100906.34;5068469;28;66538;-46
2023/07/07 03:09:38;;;;;;;13.65;12.65;;;;;;;31.31;64.02;100919.59;5043531;28;70132;-46
2023/07/07 03:12:09;;;;;;;13.73;12.73;;;;;;;31.32;64.51;100927.53;5042356;28;66300;-46
2023/07/07 03:14:41;;;;;;;13.23;12.17;;;;;;;31.34;64.37;100913.75;5039743;28;69919;-46
2023/07/07 03:17:16;;;;;;;14.30;13.07;;;;;;;31.40;64.38;100915.63;5055114;28;66848;-46
2023/07/07 03:19:53;;;;;;;13.80;12.45;;;;;;;31.44;64.06;100916.81;5057850;28;70517;-46
2023/07/07 03:22:24;;;;;;;13.77;12.45;;;;;;;31.44;64.03;100910.56;5059478;28;66083;-46
2023/07/07 03:25:00;;;;;;;13.38;12.10;;;;;;;31.44;63.90;100903.25;5045654;28;69376;-46
2023/07/07 03:27:48;;;;;;;13.75;12.60;;;;;;;31.53;63.96;100901.09;5042153;28;66660;-46
2023/07/07 03:30:27;;;;;;;12.60;11.50;;;;;;;31.56;63.88;100904.16;5039688;28;70442;-45
2023/07/07 03:33:07;;;;;;;13.13;12.07;;;;;;;31.56;63.34;100887.91;5032827;28;65731;-47
2023/07/07 03:35:44;;;;;;;13.80;12.30;;;;;;;31.63;63.31;100889.72;5041846;28;70879;-46
2023/07/07 03:38:18;;;;;;;12.82;11.88;;;;;;;31.07;63.41;100792.06;5058966;28;66687;-46
2023/07/07 03:40:52;;;;;;;12.25;11.32;;;;;;;31.66;63.42;100892.00;5044283;28;70263;-46
2023/07/07 03:43:33;;;;;;;13.88;12.57;;;;;;;31.52;63.37;100856.88;5041215;28;65822;-45
2023/07/07 03:46:05;;;;;;;15.60;12.48;;;;;;;31.69;63.38;100873.38;5048365;28;70549;-45
2023/07/07 03:48:36;;;;;;;;;;;;;;;31.38;64.52;100877.88;5070585;28;66078;-47
2023/07/07 03:51:07;;;;;;;12.88;11.75;;;;;;;31.71;63.44;100870.44;5056774;28;70814;-48
2023/07/07 03:53:43;;;;;;;13.27;12.02;;;;;;;31.75;63.13;100871.63;5038316;28;66544;-45
2023/07/07 03:56:15;;;;;;;12.18;11.38;;;;;;;31.77;63.27;100873.06;5034757;28;70667;-45
2023/07/07 03:58:46;;;;;;;11.88;11.00;;;;;;;31.74;63.40;100865.41;5057657;28;66387;-46
2023/07/07 04:01:19;;;;;;;12.43;11.60;;;;;;;31.79;63.14;100862.00;5057741;28;70715;-47
2023/07/07 04:03:57;;;;;;;12.07;10.93;;;;;;;31.71;63.05;100843.34;5051980;28;66182;-47
2023/07/07 04:06:33;;;;;;;12.50;11.38;;;;;;;31.85;63.05;100863.81;5038688;28;70864;-47
2023/07/07 04:09:04;;;;;;;12.32;11.30;;;;;;;31.65;63.01;100817.09;5049504;28;65559;-46
2023/07/07 04:11:35;;;;;;;11.73;10.90;;;;;;;31.86;63.11;100846.47;5039682;28;69572;-46
2023/07/07 04:14:06;;;;;;;;;;;;;;;31.60;64.04;100850.34;5057982;28;66888;-51
2023/07/07 04:16:39;;;;;;;11.07;10.40;;;;;;;31.88;63.07;100844.38;5057456;28;70584;-46
2023/07/07 04:19:12;;;;;;;11.85;10.88;;;;;;;31.93;62.99;100835.56;5056732;28;66042;-47
2023/07/07 04:21:43;;;;;;;11.97;10.83;;;;;;;31.96;62.90;100833.22;5042994;28;70667;-46
2023/07/07 04:24:20;;;;;;;12.23;11.15;;;;;;;32.00;62.74;100837.13;5059007;28;65880;-46
2023/07/07 04:26:52;;;;;;;10.77;9.90;;;;;;;32.02;62.80;100835.03;5040472;28;70055;-45
2023/07/07 04:29:26;;;;;;;10.80;10.10;;;;;;;32.04;62.61;100822.06;5056456;28;66551;-46
2023/07/07 04:31:59;;;;;;;11.07;10.23;;;;;;;31.94;62.31;100800.06;5059204;28;69777;-45
2023/07/07 04:34:31;;;;;;;10.35;9.65;;;;;;;32.10;62.33;100812.16;5058539;28;66716;-46
2023/07/07 04:37:02;;;;;;;10.73;9.93;;;;;;;32.11;62.47;100813.81;5047699;28;69682;-46
2023/07/07 04:39:35;;;;;;;10.13;9.38;;;;;;;32.09;62.40;100788.78;5057514;28;66278;-46
2023/07/07 04:42:06;;;;;;;11.68;10.70;;;;;;;32.16;62.37;100805.00;5039706;28;70166;-46
2023/07/07 04:44:37;;;;;;;10.27;9.68;;;;;;;32.18;62.62;100794.72;5040033;28;66663;-44
2023/07/07 04:47:08;;;;;;;10.10;9.50;;;;;;;32.21;62.03;100789.66;5061130;28;70319;-45
2023/07/07 04:49:39;;;;;;;10.70;9.60;;;;;;;32.25;62.07;100784.59;5055657;28;66231;-45
2023/07/07 04:52:11;;;;;;;10.77;10.07;;;;;;;32.29;61.95;100785.81;5057644;28;70706;-47
2023/07/07 04:54:42;;;;;;;9.95;9.35;;;;;;;32.32;61.98;100782.63;5058158;28;66454;-46
2023/07/07 04:57:16;;;;;;;9.88;9.27;;;;;;;32.35;61.66;100778.63;5056212;28;69273;-46
2023/07/07 04:59:50;;;;;;;9.98;9.38;;;;;;;32.38;61.60;100773.53;5058594;28;66354;-46
2023/07/07 05:02:22;;;;;;;9.77;9.17;;;;;;;32.39;61.82;100771.66;5058022;28;70323;-46
2023/07/07 05:04:54;;;;;;;10.55;9.70;;;;;;;32.42;61.68;100761.13;5057628;28;66794;-46
2023/07/07 05:07:28;;;;;;;9.10;8.47;;;;;;;31.95;61.52;100682.34;5057831;28;69570;-45
2023/07/07 05:09:59;;;;;;;9.43;8.82;;;;;;;32.50;61.51;100760.00;5059535;28;66770;-46
2023/07/07 05:12:30;;;;;;;8.32;7.82;;;;;;;32.51;61.37;100766.25;5058444;28;70899;-45
2023/07/07 05:15:01;;;;;;;9.13;8.53;;;;;;;32.36;61.01;100737.66;5058670;28;65941;-46
2023/07/07 05:17:33;;;;;;;8.63;8.00;;;;;;;32.49;61.12;100753.75;5057302;28;69903;-48
2023/07/07 05:20:04;;;;;;;8.82;8.32;;;;;;;32.60;61.27;100762.16;5058354;28;66094;-47
2023/07/07 05:22:36;;;;;;;8.20;7.65;;;;;;;32.61;61.20;100759.19;5040454;28;69689;-44
2023/07/07 05:25:08;;;;;;;8.90;8.25;;;;;;;32.62;61.33;100746.44;5057561;28;67324;-46
2023/07/07 05:27:39;;;;;;;8.32;7.88;;;;;;;32.64;61.23;100741.59;5058272;28;70211;-46
2023/07/07 05:30:11;;;;;;;9.73;8.93;;;;;;;32.67;60.83;100732.97;5060623;28;66193;-46
2023/07/07 05:32:42;;;;;;;8.00;7.50;;;;;;;32.68;60.79;100729.19;5061431;28;69370;-47
2023/07/07 05:35:13;;;;;;;7.50;7.10;;;;;;;32.74;60.88;100728.28;5063051;28;67833;-47
2023/07/07 05:37:44;;;;;;;8.50;7.90;;;;;;;32.70;60.78;100716.22;5043832;28;69820;-45
2023/07/07 05:40:15;;;;;;;7.60;7.10;;;;;;;32.74;60.69;100727.44;5059876;28;66680;-46
2023/07/07 05:42:46;;;;;;;9.48;7.18;;;;;;;32.80;60.46;100719.16;5057476;28;71193;-46
2023/07/07 05:45:18;;;;;;;7.73;7.23;;;;;;;32.81;60.29;100712.66;5058102;28;65660;-46
2023/07/07 05:47:49;;;;;;;7.28;6.85;;;;;;;32.87;60.46;100722.56;5061923;28;70573;-46
2023/07/07 05:50:20;;;;;;;7.20;6.70;;;;;;;32.89;60.46;100715.00;5058386;28;66212;-46
2023/07/07 05:52:52;;;;;;;7.57;7.17;;;;;;;32.76;60.27;100676.41;5060522;28;70656;-45
2023/07/07 05:55:34;;;;;;;6.00;5.65;;;;;;;32.34;60.20;100612.19;5061467;28;65534;-46
2023/07/07 05:58:06;;;;;;;6.93;6.43;;;;;;;32.71;60.09;100655.41;5047462;28;70151;-47
2023/07/07 06:00:37;;;;;;;7.35;6.60;;;;;;;33.04;60.07;100702.84;5061435;28;66727;-49
2023/07/07 06:03:09;;;;;;;7.30;6.90;;;;;;;33.05;59.96;100699.09;5060992;28;69820;-46
2023/07/07 06:05:43;;;;;;;6.90;6.50;;;;;;;33.02;59.88;100680.53;5060155;28;65599;-46
2023/07/07 06:08:17;;;;;;;6.70;6.28;;;;;;;33.05;60.01;100674.63;5061480;28;69645;-46
2023/07/07 06:10:52;;;;;;;6.95;6.55;;;;;;;33.19;59.86;100692.31;5043825;28;66398;-45
2023/07/07 06:13:27;;;;;;;6.28;5.88;;;;;;;33.19;59.77;100680.63;5061889;28;70871;-46
2023/07/07 06:15:59;;;;;;;6.55;6.15;;;;;;;33.18;59.91;100662.66;5066488;28;65656;-46
2023/07/07 06:18:34;;;;;;;6.78;6.38;;;;;;;33.28;59.74;100673.72;5041278;28;70711;-47
2023/07/07 06:21:05;;;;;;;6.72;6.13;;;;;;;33.31;59.76;100675.97;5060296;28;66190;-46
2023/07/07 06:23:36;;;;;;;6.00;5.70;;;;;;;33.32;59.70;100667.56;5061073;28;70795;-46
2023/07/07 06:26:10;;;;;;;5.90;5.55;;;;;;;33.40;59.64;100665.53;5062076;28;65856;-45
2023/07/07 06:28:41;;;;;;;;;;;;;;;33.20;59.92;100663.25;5073750;28;70161;-45
2023/07/07 06:31:15;;;;;;;5.07;4.78;;;;;;;33.43;59.17;100654.97;5060800;28;66578;-46
2023/07/07 06:33:46;;;;;;;5.70;5.40;;;;;;;33.48;59.50;100652.34;5060453;28;68816;-46
2023/07/07 06:36:21;;;;;;;5.85;5.55;;;;;;;33.40;59.29;100622.84;5064149;28;66366;-46
2023/07/07 06:38:52;;;;;;;5.50;5.20;;;;;;;33.54;58.96;100639.72;5055178;28;70132;-45
2023/07/07 06:41:24;;;;;;;5.75;5.45;;;;;;;33.47;59.12;100618.09;5034124;28;66003;-46
2023/07/07 06:43:56;;;;;;;5.20;4.90;;;;;;;33.53;59.12;100616.31;5060050;28;69187;-45
2023/07/07 06:46:28;;;;;;;5.40;5.00;;;;;;;33.72;58.86;100636.78;5060168;28;65362;-46
2023/07/07 06:49:04;;;;;;;5.53;5.22;;;;;;;33.73;58.92;100629.44;5060688;28;70300;-45
2023/07/07 06:51:35;;;;;;;5.25;4.95;;;;;;;33.67;58.84;100617.66;5060795;28;66861;-46
2023/07/07 06:54:06;;;;;;;5.22;4.93;;;;;;;33.81;58.75;100623.59;5061096;28;70298;-46
2023/07/07 06:56:38;;;;;;;5.60;5.30;;;;;;;33.73;58.61;100594.91;5061452;28;65995;-45
2023/07/07 06:59:09;;;;;;;5.68;5.28;;;;;;;33.85;58.45;100608.44;5058186;28;70142;-46
2023/07/07 07:01:40;;;;;;;5.15;4.75;;;;;;;34.00;58.51;100610.56;5060713;28;65824;-45
2023/07/07 07:04:12;;;;;;;4.93;4.63;;;;;;;34.04;58.15;100611.72;5060760;28;69985;-46
2023/07/07 07:06:44;;;;;;;4.40;4.20;;;;;;;34.09;58.18;100600.94;5059191;28;65731;-46
2023/07/07 07:09:16;;;;;;;5.05;4.75;;;;;;;34.11;57.99;100596.06;5058557;28;69805;-45
2023/07/07 07:11:49;;;;;;;5.10;4.80;;;;;;;34.17;58.10;100597.78;5061036;28;66519;-46
2023/07/07 07:14:20;;;;;;;5.15;4.85;;;;;;;34.22;58.30;100600.59;5059972;28;69531;-47
2023/07/07 07:16:51;;;;;;;4.93;4.63;;;;;;;34.23;57.70;100585.09;5068739;28;65708;-47
2023/07/07 07:19:23;;;;;;;4.30;4.00;;;;;;;34.22;57.62;100570.66;5055508;28;70551;-47
2023/07/07 07:21:54;;;;;;;4.93;4.63;;;;;;;34.30;57.46;100574.00;5060498;28;66813;-47
2023/07/07 07:24:28;;;;;;;5.63;5.03;;;;;;;33.89;57.52;100499.94;5060780;28;70617;-45
2023/07/07 07:27:00;;;;;;;4.90;4.45;;;;;;;34.05;57.50;100520.06;5059107;28;65664;-45
2023/07/07 07:29:32;;;;;;;4.80;4.60;;;;;;;34.44;57.21;100572.59;5061216;28;70119;-45
2023/07/07 07:32:05;;;;;;;4.90;4.43;;;;;;;34.51;57.31;100578.66;5062195;27;66414;-46
2023/07/07 07:34:36;;;;;;;4.53;4.22;;;;;;;34.40;57.47;100557.81;5064316;28;70990;-45
2023/07/07 07:37:08;;;;;;;4.53;4.25;;;;;;;34.55;57.23;100568.91;5064380;28;66146;-46
2023/07/07 07:39:43;;;;;;;4.25;4.05;;;;;;;34.58;57.52;100563.00;5055121;28;70511;-45
2023/07/07 07:42:19;;;;;;;4.63;4.32;;;;;;;34.59;57.35;100559.19;5042034;28;66711;-45
2023/07/07 07:44:50;;;;;;;4.72;4.43;;;;;;;34.62;56.97;100552.41;5065493;28;70728;-45
2023/07/07 07:47:22;;;;;;;4.43;4.20;;;;;;;34.47;57.11;100520.34;5060096;28;66207;-46
2023/07/07 07:49:53;;;;;;;4.93;4.47;;;;;;;34.64;57.24;100533.91;5051081;28;69213;-46
2023/07/07 07:52:28;;;;;;;4.78;4.47;;;;;;;34.66;56.75;100532.59;5057068;28;66653;-45
2023/07/07 07:55:02;;;;;;;4.82;4.53;;;;;;;34.61;56.67;100513.47;5051370;28;70386;-47
2023/07/07 07:57:34;;;;;;;4.90;4.50;;;;;;;34.70;56.74;100517.38;5061180;28;65824;-45
2023/07/07 08:00:06;;;;;;;4.97;4.68;;;;;;;34.70;57.20;100509.19;5058384;28;70119;-45
2023/07/07 08:02:41;;;;;;;4.25;4.05;;;;;;;34.71;56.81;100496.38;5059696;28;65446;-46
2023/07/07 08:05:15;;;;;;;4.80;4.50;;;;;;;34.17;56.60;100415.41;5059485;28;70519;-45
2023/07/07 08:07:46;;;;;;;4.80;4.50;;;;;;;34.75;57.07;100500.25;5045623;28;66344;-46
2023/07/07 08:10:18;;;;;;;5.65;5.22;;;;;;;34.75;56.58;100507.63;5039164;28;70130;-46
2023/07/07 08:12:49;;;;;;;4.72;4.40;;;;;;;34.76;56.65;100503.81;5059324;28;66010;-45
2023/07/07 08:15:21;;;;;;;4.80;4.50;;;;;;;34.78;57.11;100497.03;5055593;28;69847;-46
2023/07/07 08:17:52;;;;;;;5.25;4.85;;;;;;;34.78;56.53;100501.66;5041789;28;65451;-45
2023/07/07 08:20:28;;;;;;;5.32;4.93;;;;;;;34.80;56.52;100516.66;5066786;28;70648;-45
2023/07/07 08:23:02;;;;;;;5.13;4.82;;;;;;;34.80;56.76;100507.66;5066881;28;66428;-46
2023/07/07 08:25:35;;;;;;;5.55;5.18;;;;;;;34.73;57.00;100487.97;5058963;28;69400;-45
2023/07/07 08:28:06;;;;;;;5.22;4.82;;;;;;;34.82;56.78;100508.22;5057363;28;65922;-46
2023/07/07 08:30:37;;;;;;;5.30;4.90;;;;;;;34.81;57.16;100506.59;5028036;28;70175;-45
2023/07/07 08:33:08;;;;;;;;;;;;;;;34.63;57.09;100511.31;5044307;28;66804;-46
2023/07/07 08:35:40;;;;;;;;;;;;;;;34.61;56.91;100513.47;5058869;28;70091;-45
2023/07/07 08:38:16;;;;;;;6.03;5.63;;;;;;;34.80;56.96;100516.66;5057801;28;66877;-46
2023/07/07 08:40:52;;;;;;;6.03;5.60;;;;;;;34.80;57.02;100515.81;5057458;28;70093;-47
2023/07/07 08:43:30;;;;;;;5.88;5.47;;;;;;;34.82;56.74;100508.22;5056138;28;66549;-46
2023/07/07 08:46:07;;;;;;;5.65;5.20;;;;;;;34.84;56.97;100506.06;5060320;28;69831;-46
2023/07/07 08:49:01;;;;;;;5.70;5.40;;;;;;;34.69;56.83;100493.94;5065204;28;66528;-45
2023/07/07 08:51:41;;;;;;;6.63;6.20;;;;;;;34.81;57.03;100506.59;5057502;28;70504;-46
2023/07/07 08:54:26;;;;;;;6.90;6.38;;;;;;;34.85;57.11;100519.47;5047149;28;65897;-45
2023/07/07 08:57:15;;;;;;;6.60;6.00;;;;;;;34.80;57.20;100515.81;5062318;28;69771;-45
2023/07/07 09:00:11;;;;;;;5.88;5.32;;;;;;;34.78;57.23;100512.56;5064185;28;66571;-46
2023/07/07 09:03:14;;;;;;;6.60;6.03;;;;;;;34.78;56.70;100518.00;5058729;28;70236;-46
2023/07/07 09:05:54;;;;;;;5.72;5.43;;;;;;;34.84;56.73;100527.88;5067343;28;65623;-46
2023/07/07 09:08:49;;;;;;;5.88;5.47;;;;;;;34.80;57.19;100537.63;5068317;28;70231;-45
2023/07/07 09:11:33;;;;;;;6.53;6.05;;;;;;;34.27;56.92;100458.28;5058460;28;66810;-45
2023/07/07 09:14:08;;;;;;;6.07;5.60;;;;;;;34.83;56.85;100546.13;5068777;28;70634;-46
2023/07/07 09:16:43;;;;;;;7.82;5.32;;;;;;;34.36;56.62;100472.28;5041216;28;66726;-45
2023/07/07 09:19:25;;;;;;;6.68;5.93;;;;;;;34.48;57.01;100481.13;5060539;28;69158;-45
2023/07/07 09:22:20;;;;;;;5.80;5.40;;;;;;;34.83;56.63;100548.03;5066770;28;65710;-45
2023/07/07 09:24:58;;;;;;;5.57;5.18;;;;;;;34.77;56.88;100549.88;5061182;28;69536;-46
2023/07/07 09:27:36;;;;;;;5.20;4.90;;;;;;;34.35;57.24;100482.34;5061658;28;66638;-45
2023/07/07 09:30:28;;;;;;;5.55;4.75;;;;;;;34.72;56.73;100557.16;5061052;28;69721;-46
2023/07/07 09:33:00;;;;;;;7.47;4.87;;;;;;;34.75;57.02;100556.66;5015820;28;66326;-46
2023/07/07 09:35:39;;;;;;;5.10;4.60;;;;;;;34.25;56.66;100474.03;5061996;28;70287;-45
2023/07/07 09:38:43;;;;;;;4.30;4.03;;;;;;;34.73;57.12;100558.81;5061723;28;65813;-45
2023/07/07 09:41:39;;;;;;;4.22;3.90;;;;;;;34.67;57.59;100557.94;5042623;28;70038;-47
2023/07/07 09:44:38;;;;;;;4.75;4.45;;;;;;;34.67;57.51;100558.75;5061499;28;66719;-45
2023/07/07 09:47:26;;;;;;;4.20;4.00;;;;;;;34.72;56.93;100568.06;5055218;28;70548;-45
2023/07/07 09:50:12;;;;;;;4.25;3.95;;;;;;;34.65;57.25;100574.50;5058059;28;66536;-45
2023/07/07 09:53:05;;;;;;;4.57;4.18;;;;;;;34.15;57.02;100487.53;5047022;28;70541;-45
2023/07/07 09:55:58;;;;;;;4.28;3.85;;;;;;;34.68;57.50;100579.44;5058157;28;66363;-46
2023/07/07 09:58:34;;;;;;;3.50;3.30;;;;;;;34.68;56.94;100579.44;5057924;28;69446;-46
2023/07/07 10:01:06;;;;;;;4.03;3.72;;;;;;;34.65;57.18;100579.97;5056518;28;66553;-45
2023/07/07 10:03:46;;;;;;;6.13;3.42;;;;;;;34.17;57.64;100513.41;5057172;28;70090;-45
2023/07/07 10:06:50;;;;;;;3.92;3.60;;;;;;;34.42;57.55;100563.84;5056887;28;66918;-46
2023/07/07 10:09:31;;;;;;;3.90;3.60;;;;;;;34.60;57.57;100596.25;5057534;28;69950;-45
2023/07/07 10:12:02;;;;;;;3.97;3.55;;;;;;;34.58;57.86;100598.41;5056955;28;66377;-46
2023/07/07 10:14:37;;;;;;;3.50;3.20;;;;;;;34.59;57.55;100629.19;5058274;28;69454;-46
2023/07/07 10:17:09;;;;;;;3.45;3.25;;;;;;;34.57;57.54;100623.97;5055668;28;66155;-46
2023/07/07 10:20:08;;;;;;;3.33;3.13;;;;;;;34.44;58.47;100632.50;5058563;28;70970;-45
2023/07/07 10:22:42;;;;;;;3.22;3.03;;;;;;;34.21;57.75;100592.66;5057557;28;65666;-46
2023/07/07 10:25:15;;;;;;;3.47;3.17;;;;;;;33.86;60.01;100647.34;5053446;28;68959;-44
2023/07/07 10:27:53;;;;;;;3.30;3.10;;;;;;;33.62;61.43;100647.47;5054446;28;66408;-44
2023/07/07 10:30:27;;;;;;;3.30;3.00;;;;;;;33.21;62.30;100602.34;5057065;28;70622;-44
2023/07/07 10:32:58;;;;;;;3.47;3.15;;;;;;;33.47;62.69;100647.19;5057655;28;66390;-45
2023/07/07 10:35:32;;;;;;;3.50;3.20;;;;;;;33.26;63.17;100606.00;5057173;28;70198;-44
2023/07/07 10:38:08;;;;;;;3.45;3.15;;;;;;;33.43;63.64;100644.09;5057128;28;64411;-42
2023/07/07 10:40:42;;;;;;;5.20;2.40;;;;;;;32.83;64.19;100558.41;5055695;28;70439;-43
2023/07/07 10:43:18;;;;;;;2.95;2.75;;;;;;;33.84;62.26;100646.78;5056842;28;66476;-45
2023/07/07 10:45:54;;;;;;;3.00;2.80;;;;;;;33.98;61.65;100648.09;5056114;28;70316;-47
2023/07/07 10:48:25;;;;;;;3.28;2.97;;;;;;;34.01;61.26;100655.75;5040741;28;65793;-43
2023/07/07 10:51:26;;;;;;;3.20;2.65;;;;;;;33.93;62.42;100648.00;5026314;28;69463;-44
2023/07/07 10:54:00;;;;;;;5.28;3.00;;;;;;;34.10;61.38;100676.09;5060892;27;66555;-46
2023/07/07 10:56:49;;;;;;;3.30;3.10;;;;;;;34.02;61.73;100657.44;5015274;28;70497;-44
2023/07/07 11:00:00;;;;;;;3.80;2.63;;;;;;;33.53;61.63;100584.50;5023228;28;65370;-43
2023/07/07 11:02:53;;;;;;;3.23;2.97;;;;;;;34.15;61.57;100689.78;5055590;28;70633;-44
2023/07/07 11:05:34;;;;;;;8.23;2.97;;;;;;;34.17;61.44;100700.41;5061827;28;66098;-44
2023/07/07 11:08:31;;;;;;;2.72;2.53;;;;;;;34.08;62.27;100713.63;5058755;28;69553;-44
2023/07/07 11:11:05;;;;;;;4.78;3.03;;;;;;;34.16;61.34;100710.50;5062923;28;66780;-43
2023/07/07 11:14:02;;;;;;;2.60;2.28;;;;;;;34.08;61.89;100710.91;5055944;28;69811;-44
2023/07/07 11:16:56;;;;;;;3.30;2.72;;;;;;;33.54;62.18;100635.13;5059128;28;66474;-45
2023/07/07 11:19:45;;;;;;;3.47;2.80;;;;;;;34.03;62.33;100741.53;5063616;28;70128;-44
2023/07/07 11:22:33;;;;;;;5.40;2.00;;;;;;;34.09;61.82;100755.28;5061431;28;65744;-44
2023/07/07 11:25:33;;;;;;;2.40;2.20;;;;;;;33.43;62.21;100670.47;5060266;28;70511;-44
2023/07/07 11:28:10;;;;;;;2.13;2.03;;;;;;;34.08;61.39;100746.28;5049987;28;66007;-45
2023/07/07 11:30:55;;;;;;;8.18;2.83;;;;;;;34.07;61.53;100757.41;5060241;28;70353;-46
2023/07/07 11:33:53;;;;;;;4.47;2.50;;;;;;;34.02;62.02;100755.41;5060864;28;66547;-44
2023/07/07 11:36:30;;;;;;;2.63;2.42;;;;;;;34.00;62.09;100758.34;5058944;28;69920;-45
2023/07/07 11:39:35;;;;;;;3.80;3.00;;;;;;;33.86;61.90;100739.88;5059806;28;66811;-44
2023/07/07 11:42:42;;;;;;;2.70;2.38;;;;;;;33.99;62.01;100755.88;5060388;28;70092;-43
2023/07/07 11:45:36;;;;;;;5.85;2.25;;;;;;;33.89;62.10;100764.69;5004679;28;66665;-46
2023/07/07 11:48:16;;;;;;;3.78;2.42;;;;;;;33.96;61.99;100765.38;5058050;28;71038;-44
2023/07/07 11:51:20;;;;;;;6.35;2.83;;;;;;;33.68;62.43;100763.44;5058535;28;66676;-44
2023/07/07 11:53:52;;;;;;;3.30;2.13;;;;;;;33.60;62.73;100780.19;5058004;28;69750;-43
2023/07/07 11:56:39;;;;;;;7.00;2.67;;;;;;;33.77;62.32;100778.34;5057389;28;65554;-44
2023/07/07 11:59:52;;;;;;;5.05;3.35;;;;;;;33.65;62.79;100766.66;5056196;28;70314;-43
2023/07/07 12:02:42;;;;;;;6.75;2.33;;;;;;;33.12;62.68;100675.31;5060030;28;66196;-44
2023/07/07 12:05:32;;;;;;;6.05;2.40;;;;;;;33.74;62.64;100775.25;5044774;28;70002;-45